createdAt,value
2017-07-01T00:00:43.556Z,0
2017-07-01T00:01:43.489Z,0
2017-07-01T00:02:43.460Z,0
2017-07-01T00:03:43.499Z,0
2017-07-01T00:04:43.130Z,0
2017-07-01T00:05:43.400Z,0
2017-07-01T00:06:43.075Z,0
2017-07-01T00:07:43.115Z,0
2017-07-01T00:08:43.329Z,0
2017-07-01T00:09:43.313Z,0
2017-07-01T00:10:43.285Z,0
2017-07-01T00:11:43.272Z,0
2017-07-01T00:12:43.249Z,0
2017-07-01T00:13:43.231Z,0
2017-07-01T00:14:43.205Z,0
2017-07-01T00:15:43.258Z,0
2017-07-01T00:16:43.176Z,0
2017-07-01T00:17:43.205Z,0
2017-07-01T00:18:43.174Z,0
2017-07-01T00:19:42.806Z,0
2017-07-01T00:20:43.086Z,0
2017-07-01T00:21:43.074Z,0
2017-07-01T00:22:43.054Z,0
2017-07-01T00:23:42.725Z,0
2017-07-01T00:24:42.701Z,0
2017-07-01T00:25:43.038Z,0
2017-07-01T00:26:42.957Z,0
2017-07-01T00:27:42.946Z,0
2017-07-01T00:28:42.923Z,0
2017-07-01T00:29:42.307Z,0
2017-07-01T00:30:42.930Z,0
2017-07-01T00:31:42.869Z,0
2017-07-01T00:32:42.838Z,0
2017-07-01T00:33:42.820Z,0
2017-07-01T00:34:42.806Z,0
2017-07-01T00:35:42.477Z,0
2017-07-01T00:36:42.754Z,0
2017-07-01T00:37:42.433Z,0
2017-07-01T00:38:42.709Z,0
2017-07-01T00:39:42.694Z,0
2017-07-01T00:40:42.372Z,0
2017-07-01T00:41:42.652Z,0
2017-07-01T00:42:42.627Z,0
2017-07-01T00:43:42.608Z,0
2017-07-01T00:44:42.598Z,0
2017-07-01T00:45:42.575Z,0
2017-07-01T00:46:42.544Z,0
2017-07-01T00:47:42.234Z,0
2017-07-01T00:48:42.512Z,0
2017-07-01T00:49:42.194Z,0
2017-07-01T00:50:42.471Z,0
2017-07-01T00:51:42.446Z,0
2017-07-01T00:52:42.433Z,0
2017-07-01T00:53:42.419Z,0
2017-07-01T00:54:42.390Z,0
2017-07-01T00:55:42.367Z,0
2017-07-01T00:56:42.338Z,0
2017-07-01T00:57:42.370Z,0
2017-07-01T00:58:42.310Z,0
2017-07-01T00:59:42.277Z,0
2017-07-01T01:00:42.255Z,0
2017-07-01T01:01:42.240Z,0
2017-07-01T01:02:41.923Z,0
2017-07-01T01:03:42.196Z,0
2017-07-01T01:04:42.242Z,0
2017-07-01T01:05:42.149Z,0
2017-07-01T01:06:42.138Z,0
2017-07-01T01:07:42.113Z,0
2017-07-01T01:08:42.093Z,0
2017-07-01T01:09:42.071Z,0
2017-07-01T01:10:42.049Z,0
2017-07-01T01:11:42.029Z,0
2017-07-01T01:12:42.008Z,0
2017-07-01T01:13:41.983Z,0
2017-07-01T01:14:41.970Z,0
2017-07-01T01:15:41.648Z,0
2017-07-01T01:16:41.920Z,0
2017-07-01T01:17:41.902Z,0
2017-07-01T01:18:41.936Z,0
2017-07-01T01:19:41.862Z,0
2017-07-01T01:20:41.839Z,0
2017-07-01T01:21:41.820Z,0
2017-07-01T01:22:41.493Z,0
2017-07-01T01:23:41.474Z,0
2017-07-01T01:24:41.754Z,0
2017-07-01T01:25:41.735Z,0
2017-07-01T01:26:41.766Z,0
2017-07-01T01:27:41.699Z,0
2017-07-01T01:28:41.729Z,0
2017-07-01T01:29:41.654Z,0
2017-07-01T01:30:41.645Z,0
2017-07-01T01:31:41.607Z,0
2017-07-01T01:32:41.586Z,0
2017-07-01T01:33:41.267Z,0
2017-07-01T01:34:41.544Z,0
2017-07-01T01:35:41.526Z,0
2017-07-01T01:36:41.211Z,0
2017-07-01T01:37:41.488Z,0
2017-07-01T01:38:41.224Z,0
2017-07-01T01:39:41.450Z,0
2017-07-01T01:40:41.424Z,0
2017-07-01T01:41:41.407Z,0
2017-07-01T01:42:41.382Z,0
2017-07-01T01:43:41.363Z,0
2017-07-01T01:44:41.371Z,0
2017-07-01T01:45:41.325Z,0
2017-07-01T01:46:41.345Z,0
2017-07-01T01:47:41.280Z,0
2017-07-01T01:48:41.249Z,0
2017-07-01T01:49:41.282Z,0
2017-07-01T01:50:41.206Z,0
2017-07-01T01:51:41.191Z,0
2017-07-01T01:52:41.176Z,0
2017-07-01T01:53:40.855Z,0
2017-07-01T01:54:41.126Z,0
2017-07-01T01:55:41.113Z,0
2017-07-01T01:56:40.794Z,0
2017-07-01T01:57:41.066Z,0
2017-07-01T01:58:41.049Z,0
2017-07-01T01:59:41.026Z,0
2017-07-01T02:00:41.053Z,0
2017-07-01T02:01:40.989Z,0
2017-07-01T02:02:40.970Z,0
2017-07-01T02:03:40.640Z,0
2017-07-01T02:04:40.880Z,0
2017-07-01T02:05:40.891Z,0
2017-07-01T02:06:40.873Z,0
2017-07-01T02:07:40.611Z,0
2017-07-01T02:08:40.845Z,0
2017-07-01T02:09:40.510Z,0
2017-07-01T02:10:40.805Z,0
2017-07-01T02:11:40.769Z,0
2017-07-01T02:12:40.752Z,0
2017-07-01T02:13:40.726Z,0
2017-07-01T02:14:40.709Z,0
2017-07-01T02:15:40.934Z,0
2017-07-01T02:16:40.659Z,0
2017-07-01T02:17:40.655Z,0
2017-07-01T02:18:40.624Z,0
2017-07-01T02:19:40.620Z,0
2017-07-01T02:20:40.579Z,0
2017-07-01T02:21:40.605Z,0
2017-07-01T02:22:40.560Z,0
2017-07-01T02:23:40.609Z,0
2017-07-01T02:24:40.227Z,0
2017-07-01T02:25:40.519Z,0
2017-07-01T02:26:40.457Z,0
2017-07-01T02:27:40.491Z,0
2017-07-01T02:28:40.410Z,0
2017-07-01T02:29:40.385Z,0
2017-07-01T02:30:40.376Z,0
2017-07-01T02:31:40.050Z,0
2017-07-01T02:32:40.429Z,0
2017-07-01T02:33:40.314Z,0
2017-07-01T02:34:40.285Z,0
2017-07-01T02:35:40.274Z,0
2017-07-01T02:36:40.290Z,0
2017-07-01T02:37:40.222Z,0
2017-07-01T02:38:40.206Z,0
2017-07-01T02:39:40.179Z,0
2017-07-01T02:40:40.411Z,0
2017-07-01T02:41:40.177Z,0
2017-07-01T02:42:39.869Z,0
2017-07-01T02:43:40.147Z,0
2017-07-01T02:44:40.111Z,0
2017-07-01T02:45:40.058Z,0
2017-07-01T02:46:40.040Z,0
2017-07-01T02:47:40.014Z,0
2017-07-01T02:48:40.005Z,0
2017-07-01T02:49:39.974Z,0
2017-07-01T02:50:39.953Z,0
2017-07-01T02:51:39.934Z,0
2017-07-01T02:52:39.950Z,0
2017-07-01T02:53:39.890Z,0
2017-07-01T02:54:39.565Z,0
2017-07-01T02:55:39.845Z,0
2017-07-01T02:56:39.524Z,0
2017-07-01T02:57:39.753Z,0
2017-07-01T02:58:39.830Z,0
2017-07-01T02:59:39.467Z,0
2017-07-01T03:00:39.735Z,0
2017-07-01T03:01:39.722Z,0
2017-07-01T03:02:39.747Z,0
2017-07-01T03:03:39.725Z,0
2017-07-01T03:04:39.674Z,0
2017-07-01T03:05:39.638Z,0
2017-07-01T03:06:39.608Z,0
2017-07-01T03:07:39.605Z,0
2017-07-01T03:08:39.572Z,0
2017-07-01T03:09:39.560Z,0
2017-07-01T03:10:39.531Z,0
2017-07-01T03:11:39.518Z,0
2017-07-01T03:12:39.497Z,0
2017-07-01T03:13:39.466Z,0
2017-07-01T03:14:39.459Z,0
2017-07-01T03:15:39.444Z,0
2017-07-01T03:16:39.411Z,0
2017-07-01T03:17:39.389Z,0
2017-07-01T03:18:39.359Z,0
2017-07-01T03:19:39.394Z,0
2017-07-01T03:20:39.325Z,0
2017-07-01T03:21:39.306Z,5
2017-07-01T03:22:39.284Z,5
2017-07-01T03:23:39.266Z,5
2017-07-01T03:24:39.286Z,5
2017-07-01T03:25:39.249Z,5
2017-07-01T03:26:39.188Z,5
2017-07-01T03:27:39.221Z,0
2017-07-01T03:28:39.154Z,5
2017-07-01T03:29:39.148Z,5
2017-07-01T03:30:39.158Z,0
2017-07-01T03:31:38.791Z,5
2017-07-01T03:32:39.074Z,5
2017-07-01T03:33:39.111Z,5
2017-07-01T03:34:39.037Z,5
2017-07-01T03:35:39.045Z,5
2017-07-01T03:36:38.988Z,5
2017-07-01T03:37:38.968Z,5
2017-07-01T03:38:38.943Z,10
2017-07-01T03:39:38.970Z,5
2017-07-01T03:40:38.897Z,5
2017-07-01T03:41:38.925Z,5
2017-07-01T03:42:38.558Z,5
2017-07-01T03:43:38.830Z,10
2017-07-01T03:44:38.819Z,10
2017-07-01T03:45:38.798Z,10
2017-07-01T03:46:38.775Z,15
2017-07-01T03:47:38.816Z,15
2017-07-01T03:48:38.732Z,15
2017-07-01T03:49:38.764Z,15
2017-07-01T03:50:38.738Z,10
2017-07-01T03:51:38.720Z,10
2017-07-01T03:52:38.352Z,10
2017-07-01T03:53:38.635Z,10
2017-07-01T03:54:38.604Z,10
2017-07-01T03:55:38.580Z,10
2017-07-01T03:56:38.560Z,5
2017-07-01T03:57:38.549Z,10
2017-07-01T03:58:38.531Z,10
2017-07-01T03:59:38.515Z,15
2017-07-01T04:00:38.475Z,10
2017-07-01T04:01:38.465Z,10
2017-07-01T04:02:38.438Z,10
2017-07-01T04:03:38.423Z,10
2017-07-01T04:04:38.396Z,10
2017-07-01T04:05:38.375Z,10
2017-07-01T04:06:38.348Z,10
2017-07-01T04:07:38.336Z,10
2017-07-01T04:08:38.313Z,15
2017-07-01T04:09:38.337Z,15
2017-07-01T04:10:38.272Z,15
2017-07-01T04:11:38.255Z,10
2017-07-01T04:12:37.931Z,15
2017-07-01T04:13:38.207Z,15
2017-07-01T04:14:38.181Z,15
2017-07-01T04:15:38.212Z,15
2017-07-01T04:16:38.193Z,20
2017-07-01T04:17:38.128Z,25
2017-07-01T04:18:38.404Z,25
2017-07-01T04:19:38.021Z,25
2017-07-01T04:20:38.054Z,25
2017-07-01T04:21:38.035Z,30
2017-07-01T04:22:37.718Z,40
2017-07-01T04:23:38.000Z,30
2017-07-01T04:24:37.971Z,35
2017-07-01T04:25:37.658Z,30
2017-07-01T04:26:37.933Z,25
2017-07-01T04:27:37.916Z,20
2017-07-01T04:28:37.894Z,15
2017-07-01T04:29:37.871Z,15
2017-07-01T04:30:37.851Z,25
2017-07-01T04:31:37.832Z,20
2017-07-01T04:32:37.809Z,15
2017-07-01T04:33:37.838Z,10
2017-07-01T04:34:37.776Z,5
2017-07-01T04:35:37.445Z,10
2017-07-01T04:36:37.716Z,5
2017-07-01T04:37:37.451Z,5
2017-07-01T04:38:37.686Z,10
2017-07-01T04:39:37.723Z,10
2017-07-01T04:40:37.641Z,20
2017-07-01T04:41:37.660Z,10
2017-07-01T04:42:37.595Z,10
2017-07-01T04:43:37.272Z,15
2017-07-01T04:44:37.604Z,20
2017-07-01T04:45:37.534Z,25
2017-07-01T04:46:37.615Z,20
2017-07-01T04:47:37.545Z,25
2017-07-01T04:48:37.470Z,30
2017-07-01T04:49:37.451Z,25
2017-07-01T04:50:37.185Z,30
2017-07-01T04:51:37.422Z,35
2017-07-01T04:52:37.425Z,35
2017-07-01T04:53:37.369Z,40
2017-07-01T04:54:37.390Z,30
2017-07-01T04:55:37.322Z,25
2017-07-01T04:56:37.340Z,25
2017-07-01T04:57:36.986Z,20
2017-07-01T04:58:37.287Z,25
2017-07-01T04:59:37.245Z,25
2017-07-01T05:00:37.219Z,15
2017-07-01T05:01:37.202Z,20
2017-07-01T05:02:36.877Z,20
2017-07-01T05:03:36.857Z,25
2017-07-01T05:04:37.132Z,30
2017-07-01T05:05:37.118Z,35
2017-07-01T05:06:37.105Z,30
2017-07-01T05:07:37.065Z,30
2017-07-01T05:08:37.048Z,35
2017-07-01T05:09:37.032Z,40
2017-07-01T05:10:36.665Z,40
2017-07-01T05:11:36.982Z,35
2017-07-01T05:12:37.023Z,40
2017-07-01T05:13:36.958Z,35
2017-07-01T05:14:36.924Z,40
2017-07-01T05:15:36.601Z,30
2017-07-01T05:16:36.882Z,30
2017-07-01T05:17:36.605Z,30
2017-07-01T05:18:36.833Z,25
2017-07-01T05:19:36.820Z,25
2017-07-01T05:20:36.803Z,25
2017-07-01T05:21:36.776Z,15
2017-07-01T05:22:36.459Z,15
2017-07-01T05:23:36.470Z,15
2017-07-01T05:24:36.722Z,20
2017-07-01T05:25:36.691Z,15
2017-07-01T05:26:36.726Z,20
2017-07-01T05:27:36.358Z,25
2017-07-01T05:28:36.637Z,25
2017-07-01T05:29:36.608Z,30
2017-07-01T05:30:36.591Z,30
2017-07-01T05:31:36.276Z,30
2017-07-01T05:32:36.248Z,35
2017-07-01T05:33:36.230Z,35
2017-07-01T05:34:36.504Z,45
2017-07-01T05:35:36.185Z,50
2017-07-01T05:36:36.165Z,40
2017-07-01T05:37:36.444Z,35
2017-07-01T05:38:36.431Z,25
2017-07-01T05:39:36.396Z,20
2017-07-01T05:40:36.082Z,25
2017-07-01T05:41:36.361Z,30
2017-07-01T05:42:36.338Z,25
2017-07-01T05:43:36.315Z,30
2017-07-01T05:44:35.992Z,40
2017-07-01T05:45:36.282Z,30
2017-07-01T05:46:36.257Z,25
2017-07-01T05:47:36.238Z,25
2017-07-01T05:48:35.912Z,30
2017-07-01T05:49:36.254Z,40
2017-07-01T05:50:36.219Z,55
2017-07-01T05:51:36.449Z,50
2017-07-01T05:52:36.187Z,60
2017-07-01T05:53:35.820Z,45
2017-07-01T05:54:36.079Z,35
2017-07-01T05:55:36.071Z,30
2017-07-01T05:56:36.091Z,30
2017-07-01T05:57:36.025Z,35
2017-07-01T05:58:35.401Z,35
2017-07-01T05:59:35.987Z,30
2017-07-01T06:00:35.969Z,40
2017-07-01T06:01:35.948Z,75
2017-07-01T06:02:35.924Z,85
2017-07-01T06:03:35.900Z,75
2017-07-01T06:04:35.867Z,85
2017-07-01T06:05:35.910Z,105
2017-07-01T06:06:35.843Z,105
2017-07-01T06:07:35.578Z,100
2017-07-01T06:08:35.795Z,105
2017-07-01T06:09:35.771Z,105
2017-07-01T06:10:35.454Z,95
2017-07-01T06:11:35.483Z,85
2017-07-01T06:12:35.720Z,85
2017-07-01T06:13:35.393Z,85
2017-07-01T06:14:35.369Z,85
2017-07-01T06:15:35.647Z,85
2017-07-01T06:16:35.623Z,100
2017-07-01T06:17:35.654Z,105
2017-07-01T06:18:35.591Z,110
2017-07-01T06:19:35.562Z,130
2017-07-01T06:20:35.546Z,150
2017-07-01T06:21:35.520Z,165
2017-07-01T06:22:35.502Z,165
2017-07-01T06:23:35.480Z,195
2017-07-01T06:24:35.163Z,225
2017-07-01T06:25:35.442Z,250
2017-07-01T06:26:35.411Z,260
2017-07-01T06:27:35.451Z,270
2017-07-01T06:28:35.387Z,280
2017-07-01T06:29:34.821Z,285
2017-07-01T06:30:35.043Z,290
2017-07-01T06:31:35.347Z,285
2017-07-01T06:32:35.305Z,280
2017-07-01T06:33:35.267Z,275
2017-07-01T06:34:35.324Z,250
2017-07-01T06:35:35.227Z,225
2017-07-01T06:36:34.958Z,220
2017-07-01T06:37:35.192Z,200
2017-07-01T06:38:35.169Z,185
2017-07-01T06:39:35.209Z,165
2017-07-01T06:40:35.132Z,150
2017-07-01T06:41:35.109Z,130
2017-07-01T06:42:35.090Z,120
2017-07-01T06:43:35.069Z,120
2017-07-01T06:44:35.067Z,95
2017-07-01T06:45:34.723Z,95
2017-07-01T06:46:35.001Z,130
2017-07-01T06:47:34.994Z,135
2017-07-01T06:48:34.975Z,170
2017-07-01T06:49:34.944Z,180
2017-07-01T06:50:34.622Z,180
2017-07-01T06:51:34.902Z,170
2017-07-01T06:52:34.970Z,190
2017-07-01T06:53:34.858Z,195
2017-07-01T06:54:34.832Z,190
2017-07-01T06:55:34.505Z,215
2017-07-01T06:56:34.794Z,205
2017-07-01T06:57:34.462Z,190
2017-07-01T06:58:34.760Z,190
2017-07-01T06:59:34.741Z,180
2017-07-01T07:00:34.713Z,175
2017-07-01T07:01:34.692Z,200
2017-07-01T07:02:34.382Z,185
2017-07-01T07:03:34.643Z,180
2017-07-01T07:04:34.632Z,170
2017-07-01T07:05:34.664Z,170
2017-07-01T07:06:34.594Z,175
2017-07-01T07:07:34.583Z,175
2017-07-01T07:08:34.557Z,165
2017-07-01T07:09:34.534Z,165
2017-07-01T07:10:34.518Z,175
2017-07-01T07:11:34.490Z,160
2017-07-01T07:12:34.469Z,165
2017-07-01T07:13:34.450Z,155
2017-07-01T07:14:34.421Z,170
2017-07-01T07:15:34.409Z,185
2017-07-01T07:16:34.431Z,165
2017-07-01T07:17:34.366Z,150
2017-07-01T07:18:34.345Z,150
2017-07-01T07:19:34.626Z,150
2017-07-01T07:20:34.307Z,155
2017-07-01T07:21:34.284Z,160
2017-07-01T07:22:33.957Z,190
2017-07-01T07:23:34.244Z,205
2017-07-01T07:24:33.935Z,200
2017-07-01T07:25:34.204Z,195
2017-07-01T07:26:33.876Z,240
2017-07-01T07:27:33.864Z,250
2017-07-01T07:28:33.829Z,245
2017-07-01T07:29:34.117Z,245
2017-07-01T07:30:33.489Z,245
2017-07-01T07:31:34.073Z,245
2017-07-01T07:32:34.045Z,245
2017-07-01T07:33:34.037Z,250
2017-07-01T07:34:34.006Z,260
2017-07-01T07:35:33.387Z,270
2017-07-01T07:36:33.971Z,280
2017-07-01T07:37:33.948Z,285
2017-07-01T07:38:33.995Z,295
2017-07-01T07:39:33.904Z,295
2017-07-01T07:40:33.886Z,285
2017-07-01T07:41:33.870Z,280
2017-07-01T07:42:33.850Z,295
2017-07-01T07:43:33.583Z,310
2017-07-01T07:44:33.815Z,305
2017-07-01T07:45:33.483Z,315
2017-07-01T07:46:33.771Z,285
2017-07-01T07:47:33.806Z,245
2017-07-01T07:48:33.727Z,260
2017-07-01T07:49:33.706Z,285
2017-07-01T07:50:33.387Z,295
2017-07-01T07:51:33.661Z,300
2017-07-01T07:52:33.346Z,270
2017-07-01T07:53:33.633Z,300
2017-07-01T07:54:33.613Z,310
2017-07-01T07:55:33.300Z,340
2017-07-01T07:56:33.566Z,355
2017-07-01T07:57:33.250Z,375
2017-07-01T07:58:33.292Z,365
2017-07-01T07:59:33.194Z,380
2017-07-01T08:00:33.472Z,425
2017-07-01T08:01:32.863Z,430
2017-07-01T08:02:33.461Z,410
2017-07-01T08:03:33.120Z,390
2017-07-01T08:04:33.427Z,385
2017-07-01T08:05:33.635Z,380
2017-07-01T08:06:33.361Z,395
2017-07-01T08:07:33.039Z,400
2017-07-01T08:08:33.320Z,400
2017-07-01T08:09:33.296Z,395
2017-07-01T08:10:33.290Z,410
2017-07-01T08:11:33.274Z,440
2017-07-01T08:12:32.992Z,395
2017-07-01T08:13:33.273Z,380
2017-07-01T08:14:33.209Z,445
2017-07-01T08:15:33.186Z,425
2017-07-01T08:16:33.189Z,475
2017-07-01T08:17:33.195Z,555
2017-07-01T08:18:33.192Z,560
2017-07-01T08:19:32.810Z,575
2017-07-01T08:20:33.099Z,495
2017-07-01T08:21:33.069Z,465
2017-07-01T08:22:33.106Z,505
2017-07-01T08:23:33.287Z,460
2017-07-01T08:24:33.017Z,460
2017-07-01T08:25:33.022Z,380
2017-07-01T08:26:32.969Z,310
2017-07-01T08:27:32.947Z,305
2017-07-01T08:28:32.652Z,340
2017-07-01T08:29:32.917Z,415
2017-07-01T08:30:32.592Z,460
2017-07-01T08:31:32.873Z,375
2017-07-01T08:32:32.905Z,320
2017-07-01T08:33:32.853Z,255
2017-07-01T08:34:32.825Z,230
2017-07-01T08:35:32.496Z,205
2017-07-01T08:36:32.528Z,295
2017-07-01T08:37:32.768Z,340
2017-07-01T08:38:32.786Z,330
2017-07-01T08:39:32.719Z,280
2017-07-01T08:40:32.705Z,240
2017-07-01T08:41:32.686Z,190
2017-07-01T08:42:32.677Z,190
2017-07-01T08:43:32.636Z,155
2017-07-01T08:44:32.624Z,160
2017-07-01T08:45:32.599Z,165
2017-07-01T08:46:32.582Z,170
2017-07-01T08:47:32.251Z,190
2017-07-01T08:48:32.245Z,255
2017-07-01T08:49:32.226Z,320
2017-07-01T08:50:32.503Z,300
2017-07-01T08:51:32.487Z,285
2017-07-01T08:52:32.469Z,250
2017-07-01T08:53:32.450Z,225
2017-07-01T08:54:32.423Z,245
2017-07-01T08:55:32.105Z,270
2017-07-01T08:56:32.383Z,290
2017-07-01T08:57:32.066Z,315
2017-07-01T08:58:32.378Z,315
2017-07-01T08:59:32.325Z,335
2017-07-01T09:00:32.305Z,295
2017-07-01T09:01:32.296Z,210
2017-07-01T09:02:31.965Z,210
2017-07-01T09:03:32.256Z,165
2017-07-01T09:04:32.243Z,145
2017-07-01T09:05:32.253Z,140
2017-07-01T09:06:31.884Z,180
2017-07-01T09:07:32.167Z,150
2017-07-01T09:08:32.142Z,180
2017-07-01T09:09:31.828Z,185
2017-07-01T09:10:32.108Z,215
2017-07-01T09:11:32.098Z,245
2017-07-01T09:12:32.072Z,230
2017-07-01T09:13:32.039Z,210
2017-07-01T09:14:32.115Z,195
2017-07-01T09:15:32.005Z,190
2017-07-01T09:16:32.053Z,195
2017-07-01T09:17:31.668Z,195
2017-07-01T09:18:31.954Z,185
2017-07-01T09:19:31.927Z,175
2017-07-01T09:20:31.620Z,175
2017-07-01T09:21:31.883Z,205
2017-07-01T09:22:31.567Z,270
2017-07-01T09:23:31.897Z,275
2017-07-01T09:24:31.538Z,225
2017-07-01T09:25:31.807Z,215
2017-07-01T09:26:31.492Z,260
2017-07-01T09:27:31.469Z,315
2017-07-01T09:28:31.795Z,350
2017-07-01T09:29:31.734Z,355
2017-07-01T09:30:31.707Z,355
2017-07-01T09:31:31.679Z,345
2017-07-01T09:32:31.374Z,345
2017-07-01T09:33:31.403Z,335
2017-07-01T09:34:31.635Z,350
2017-07-01T09:35:31.604Z,330
2017-07-01T09:36:31.600Z,340
2017-07-01T09:37:31.573Z,320
2017-07-01T09:38:31.553Z,295
2017-07-01T09:39:31.536Z,315
2017-07-01T09:40:31.515Z,340
2017-07-01T09:41:31.488Z,325
2017-07-01T09:42:31.465Z,295
2017-07-01T09:43:31.453Z,235
2017-07-01T09:44:31.429Z,290
2017-07-01T09:45:31.403Z,280
2017-07-01T09:46:31.441Z,260
2017-07-01T09:47:31.368Z,195
2017-07-01T09:48:31.346Z,200
2017-07-01T09:49:31.080Z,290
2017-07-01T09:50:31.313Z,295
2017-07-01T09:51:31.290Z,275
2017-07-01T09:52:31.290Z,275
2017-07-01T09:53:31.249Z,260
2017-07-01T09:54:31.232Z,240
2017-07-01T09:55:31.208Z,315
2017-07-01T09:56:31.186Z,370
2017-07-01T09:57:31.181Z,460
2017-07-01T09:58:30.850Z,510
2017-07-01T09:59:31.142Z,530
2017-07-01T10:00:30.660Z,640
2017-07-01T10:01:31.088Z,635
2017-07-01T10:02:30.775Z,720
2017-07-01T10:03:31.051Z,735
2017-07-01T10:04:30.744Z,770
2017-07-01T10:05:31.015Z,715
2017-07-01T10:06:30.994Z,695
2017-07-01T10:07:30.981Z,625
2017-07-01T10:08:30.962Z,620
2017-07-01T10:09:30.629Z,575
2017-07-01T10:10:30.624Z,620
2017-07-01T10:11:30.896Z,685
2017-07-01T10:12:30.874Z,675
2017-07-01T10:13:30.863Z,775
2017-07-01T10:14:30.846Z,685
2017-07-01T10:15:30.850Z,655
2017-07-01T10:16:30.505Z,635
2017-07-01T10:17:30.833Z,610
2017-07-01T10:18:30.769Z,715
2017-07-01T10:19:30.749Z,660
2017-07-01T10:20:30.732Z,435
2017-07-01T10:21:30.706Z,545
2017-07-01T10:22:30.386Z,525
2017-07-01T10:23:30.676Z,520
2017-07-01T10:24:30.363Z,370
2017-07-01T10:25:30.640Z,370
2017-07-01T10:26:30.623Z,395
2017-07-01T10:27:30.610Z,375
2017-07-01T10:28:30.576Z,325
2017-07-01T10:29:30.562Z,270
2017-07-01T10:30:30.235Z,215
2017-07-01T10:31:30.522Z,210
2017-07-01T10:32:30.512Z,240
2017-07-01T10:33:30.495Z,260
2017-07-01T10:34:30.471Z,260
2017-07-01T10:35:30.156Z,250
2017-07-01T10:36:30.433Z,250
2017-07-01T10:37:30.423Z,250
2017-07-01T10:38:30.403Z,190
2017-07-01T10:39:30.370Z,195
2017-07-01T10:40:30.356Z,210
2017-07-01T10:41:30.347Z,215
2017-07-01T10:42:30.321Z,275
2017-07-01T10:43:30.342Z,255
2017-07-01T10:44:30.278Z,240
2017-07-01T10:45:29.961Z,210
2017-07-01T10:46:30.235Z,190
2017-07-01T10:47:30.225Z,175
2017-07-01T10:48:30.206Z,145
2017-07-01T10:49:30.186Z,145
2017-07-01T10:50:29.855Z,165
2017-07-01T10:51:30.143Z,190
2017-07-01T10:52:30.126Z,165
2017-07-01T10:53:30.113Z,185
2017-07-01T10:54:30.083Z,215
2017-07-01T10:55:30.075Z,205
2017-07-01T10:56:30.045Z,200
2017-07-01T10:57:29.735Z,225
2017-07-01T10:58:30.061Z,245
2017-07-01T10:59:29.990Z,270
2017-07-01T11:00:29.968Z,270
2017-07-01T11:01:29.668Z,255
2017-07-01T11:02:29.926Z,290
2017-07-01T11:03:29.928Z,270
2017-07-01T11:04:29.293Z,375
2017-07-01T11:05:29.580Z,350
2017-07-01T11:06:29.896Z,300
2017-07-01T11:07:29.832Z,290
2017-07-01T11:08:29.810Z,355
2017-07-01T11:09:29.807Z,355
2017-07-01T11:10:30.024Z,355
2017-07-01T11:11:29.764Z,375
2017-07-01T11:12:29.741Z,340
2017-07-01T11:13:29.704Z,315
2017-07-01T11:14:29.096Z,270
2017-07-01T11:15:29.671Z,220
2017-07-01T11:16:29.690Z,235
2017-07-01T11:17:29.338Z,275
2017-07-01T11:18:29.622Z,510
2017-07-01T11:19:29.295Z,520
2017-07-01T11:20:29.575Z,355
2017-07-01T11:21:29.554Z,340
2017-07-01T11:22:29.566Z,345
2017-07-01T11:23:29.518Z,355
2017-07-01T11:24:29.247Z,425
2017-07-01T11:25:29.479Z,525
2017-07-01T11:26:29.466Z,685
2017-07-01T11:27:29.435Z,710
2017-07-01T11:28:28.819Z,680
2017-07-01T11:29:29.111Z,615
2017-07-01T11:30:29.435Z,605
2017-07-01T11:31:29.066Z,620
2017-07-01T11:32:29.344Z,620
2017-07-01T11:33:29.042Z,580
2017-07-01T11:34:29.313Z,535
2017-07-01T11:35:29.276Z,500
2017-07-01T11:36:29.316Z,425
2017-07-01T11:37:29.252Z,365
2017-07-01T11:38:29.236Z,320
2017-07-01T11:39:29.219Z,280
2017-07-01T11:40:28.894Z,235
2017-07-01T11:41:29.222Z,240
2017-07-01T11:42:29.207Z,230
2017-07-01T11:43:29.136Z,205
2017-07-01T11:44:29.142Z,220
2017-07-01T11:45:29.098Z,250
2017-07-01T11:46:29.073Z,230
2017-07-01T11:47:29.063Z,210
2017-07-01T11:48:29.053Z,180
2017-07-01T11:49:29.028Z,165
2017-07-01T11:50:29.046Z,170
2017-07-01T11:51:28.987Z,155
2017-07-01T11:52:28.712Z,165
2017-07-01T11:53:28.941Z,200
2017-07-01T11:54:28.923Z,275
2017-07-01T11:55:28.911Z,345
2017-07-01T11:56:28.593Z,380
2017-07-01T11:57:28.554Z,385
2017-07-01T11:58:28.550Z,385
2017-07-01T11:59:28.836Z,420
2017-07-01T12:00:28.809Z,450
2017-07-01T12:01:28.839Z,495
2017-07-01T12:02:28.782Z,515
2017-07-01T12:03:28.757Z,505
2017-07-01T12:04:28.441Z,505
2017-07-01T12:05:28.414Z,530
2017-07-01T12:06:28.701Z,525
2017-07-01T12:07:28.686Z,470
2017-07-01T12:08:28.650Z,400
2017-07-01T12:09:28.043Z,355
2017-07-01T12:10:28.325Z,315
2017-07-01T12:11:28.603Z,300
2017-07-01T12:12:28.589Z,280
2017-07-01T12:13:28.569Z,255
2017-07-01T12:14:28.555Z,240
2017-07-01T12:15:28.524Z,235
2017-07-01T12:16:28.306Z,220
2017-07-01T12:17:28.488Z,205
2017-07-01T12:18:28.465Z,190
2017-07-01T12:19:28.457Z,185
2017-07-01T12:20:28.445Z,185
2017-07-01T12:21:28.109Z,160
2017-07-01T12:22:28.402Z,135
2017-07-01T12:23:28.415Z,115
2017-07-01T12:24:28.367Z,125
2017-07-01T12:25:28.335Z,140
2017-07-01T12:26:28.369Z,150
2017-07-01T12:27:28.006Z,160
2017-07-01T12:28:28.038Z,155
2017-07-01T12:29:28.277Z,140
2017-07-01T12:30:28.234Z,125
2017-07-01T12:31:28.230Z,110
2017-07-01T12:32:28.206Z,105
2017-07-01T12:33:28.198Z,115
2017-07-01T12:34:27.864Z,120
2017-07-01T12:35:28.141Z,135
2017-07-01T12:36:28.128Z,125
2017-07-01T12:37:28.104Z,110
2017-07-01T12:38:28.102Z,105
2017-07-01T12:39:28.081Z,95
2017-07-01T12:40:28.068Z,85
2017-07-01T12:41:27.713Z,85
2017-07-01T12:42:28.009Z,80
2017-07-01T12:43:27.976Z,80
2017-07-01T12:44:28.041Z,75
2017-07-01T12:45:27.650Z,70
2017-07-01T12:46:27.935Z,65
2017-07-01T12:47:27.904Z,55
2017-07-01T12:48:27.931Z,45
2017-07-01T12:49:27.873Z,45
2017-07-01T12:50:27.904Z,50
2017-07-01T12:51:27.827Z,55
2017-07-01T12:52:27.858Z,75
2017-07-01T12:53:27.796Z,80
2017-07-01T12:54:27.768Z,95
2017-07-01T12:55:27.745Z,105
2017-07-01T12:56:27.726Z,100
2017-07-01T12:57:27.759Z,135
2017-07-01T12:58:27.394Z,150
2017-07-01T12:59:27.665Z,165
2017-07-01T13:00:27.643Z,195
2017-07-01T13:01:27.736Z,220
2017-07-01T13:02:27.611Z,245
2017-07-01T13:03:27.592Z,270
2017-07-01T13:04:27.565Z,295
2017-07-01T13:05:27.585Z,330
2017-07-01T13:06:27.528Z,370
2017-07-01T13:07:27.200Z,415
2017-07-01T13:08:27.484Z,450
2017-07-01T13:09:27.467Z,470
2017-07-01T13:10:27.445Z,475
2017-07-01T13:11:27.163Z,475
2017-07-01T13:12:27.399Z,445
2017-07-01T13:13:27.089Z,410
2017-07-01T13:14:27.370Z,365
2017-07-01T13:15:27.334Z,320
2017-07-01T13:16:27.324Z,265
2017-07-01T13:17:27.301Z,235
2017-07-01T13:18:27.282Z,200
2017-07-01T13:19:27.312Z,165
2017-07-01T13:20:26.953Z,140
2017-07-01T13:21:27.218Z,115
2017-07-01T13:22:27.205Z,105
2017-07-01T13:23:27.198Z,105
2017-07-01T13:24:27.189Z,105
2017-07-01T13:25:27.141Z,100
2017-07-01T13:26:27.126Z,95
2017-07-01T13:27:27.103Z,125
2017-07-01T13:28:26.781Z,165
2017-07-01T13:29:27.067Z,185
2017-07-01T13:30:27.051Z,225
2017-07-01T13:31:27.025Z,240
2017-07-01T13:32:27.037Z,255
2017-07-01T13:33:27.032Z,275
2017-07-01T13:34:26.966Z,300
2017-07-01T13:35:26.953Z,310
2017-07-01T13:36:26.924Z,310
2017-07-01T13:37:26.596Z,295
2017-07-01T13:38:26.884Z,265
2017-07-01T13:39:26.861Z,275
2017-07-01T13:40:26.855Z,280
2017-07-01T13:41:26.524Z,285
2017-07-01T13:42:26.821Z,270
2017-07-01T13:43:26.549Z,250
2017-07-01T13:44:26.763Z,235
2017-07-01T13:45:26.436Z,220
2017-07-01T13:46:26.728Z,200
2017-07-01T13:47:26.702Z,185
2017-07-01T13:48:26.383Z,150
2017-07-01T13:49:26.700Z,125
2017-07-01T13:50:26.645Z,115
2017-07-01T13:51:26.615Z,110
2017-07-01T13:52:26.597Z,115
2017-07-01T13:53:26.267Z,115
2017-07-01T13:54:26.615Z,110
2017-07-01T13:55:26.545Z,95
2017-07-01T13:56:26.519Z,90
2017-07-01T13:57:26.203Z,80
2017-07-01T13:58:26.487Z,110
2017-07-01T13:59:26.463Z,125
2017-07-01T14:00:26.141Z,135
2017-07-01T14:01:26.423Z,145
2017-07-01T14:02:26.400Z,150
2017-07-01T14:03:26.385Z,155
2017-07-01T14:04:26.410Z,160
2017-07-01T14:05:26.337Z,160
2017-07-01T14:06:26.315Z,160
2017-07-01T14:07:26.307Z,160